Time;durP1;ratioP1;P1;durP2;ratioP2;P2;SDS_P1;SDS_P2;PMS_P1;PMS_P2;Temp;Humidity;BMP_temperature;BMP_pressure;BME280_temperature;BME280_humidity;BME280_pressure;Samples;Min_cycle;Max_cycle;Signal;HPM_P1;HPM_P2
2023/05/25 00:01:42;;;;;;;15.90;9.05;;;9.30;99.90;;;;;;5053583;28;20201;-60
2023/05/25 00:04:10;;;;;;;16.13;9.73;;;9.20;99.90;;;;;;5053509;28;20257;-60
2023/05/25 00:06:39;;;;;;;25.58;10.57;;;9.20;99.90;;;;;;5053744;28;20576;-59
2023/05/25 00:09:06;;;;;;;18.38;10.90;;;9.20;99.90;;;;;;5053885;28;20198;-59
2023/05/25 00:11:33;;;;;;;16.08;10.20;;;9.20;99.90;;;;;;5053338;28;20588;-60
2023/05/25 00:14:00;;;;;;;18.85;10.82;;;9.20;99.90;;;;;;5052892;28;20671;-60
2023/05/25 00:16:27;;;;;;;14.73;10.02;;;9.20;99.90;;;;;;5053027;28;20228;-60
2023/05/25 00:18:56;;;;;;;17.20;10.93;;;9.20;99.90;;;;;;5053785;28;20212;-60
2023/05/25 00:21:23;;;;;;;23.27;12.50;;;9.20;99.90;;;;;;5058609;28;20239;-60
2023/05/25 00:23:51;;;;;;;17.83;11.55;;;9.20;99.90;;;;;;5058456;28;20289;-60
2023/05/25 00:26:18;;;;;;;17.88;10.00;;;9.20;99.90;;;;;;5057894;28;20202;-60
2023/05/25 00:28:44;;;;;;;22.40;12.13;;;9.20;99.90;;;;;;5059913;28;20214;-60
2023/05/25 00:31:11;;;;;;;16.35;10.13;;;9.20;99.90;;;;;;5063510;28;20208;-60
2023/05/25 00:33:38;;;;;;;19.30;9.80;;;9.20;99.90;;;;;;5059873;28;20197;-60
2023/05/25 00:36:05;;;;;;;15.65;9.93;;;9.10;99.90;;;;;;5057561;28;20229;-60
2023/05/25 00:38:32;;;;;;;13.55;9.68;;;9.10;99.90;;;;;;5057830;28;20632;-59
2023/05/25 00:41:00;;;;;;;19.17;9.23;;;9.00;99.90;;;;;;5058345;28;20687;-59
2023/05/25 00:43:27;;;;;;;16.80;11.05;;;8.90;99.90;;;;;;5058180;28;20201;-61
2023/05/25 00:45:55;;;;;;;19.23;11.35;;;8.90;99.90;;;;;;5057125;28;20221;-59
2023/05/25 00:48:23;;;;;;;16.75;11.02;;;8.80;99.90;;;;;;5056992;28;20217;-60
2023/05/25 00:50:56;;;;;;;19.48;12.05;;;8.80;99.90;;;;;;5056328;28;20672;-60
2023/05/25 00:53:23;;;;;;;19.52;12.98;;;8.80;99.90;;;;;;5056770;28;20186;-59
2023/05/25 00:55:59;;;;;;;20.17;13.48;;;8.80;99.90;;;;;;5057087;28;20244;-60
2023/05/25 00:58:33;;;;;;;23.95;12.40;;;8.70;99.90;;;;;;5057528;28;20189;-60
2023/05/25 01:01:01;;;;;;;22.30;13.95;;;8.70;99.90;;;;;;5057092;28;20190;-59
2023/05/25 01:03:34;;;;;;;25.67;12.55;;;8.60;99.90;;;;;;5057386;28;20206;-59
2023/05/25 01:06:04;;;;;;;21.95;12.63;;;8.60;99.90;;;;;;5057054;28;20225;-60
2023/05/25 01:08:34;;;;;;;25.10;14.02;;;8.60;99.90;;;;;;5057193;28;20582;-60
2023/05/25 01:11:03;;;;;;;20.15;14.23;;;8.60;99.90;;;;;;5056615;28;20240;-60
2023/05/25 01:13:36;;;;;;;25.88;13.85;;;8.60;99.90;;;;;;5057098;28;20198;-60
2023/05/25 01:16:04;;;;;;;27.98;13.70;;;8.50;99.90;;;;;;5056270;28;20232;-59
2023/05/25 01:18:32;;;;;;;19.55;12.70;;;8.50;99.90;;;;;;5057361;28;20205;-59
2023/05/25 01:21:12;;;;;;;22.10;14.70;;;8.40;99.90;;;;;;5056434;28;20239;-59
2023/05/25 01:23:43;;;;;;;28.80;14.98;;;8.40;99.90;;;;;;5056512;28;20239;-61
2023/05/25 01:26:13;;;;;;;29.02;14.00;;;8.40;99.90;;;;;;5057635;28;20241;-59
2023/05/25 01:28:46;;;;;;;24.67;14.30;;;8.30;99.90;;;;;;5056411;28;20190;-59
2023/05/25 01:31:14;;;;;;;27.02;15.23;;;8.30;99.90;;;;;;5056314;28;20186;-59
2023/05/25 01:33:42;;;;;;;29.45;15.68;;;8.30;99.90;;;;;;5056021;28;20206;-60
2023/05/25 01:36:10;;;;;;;23.65;15.27;;;8.30;99.90;;;;;;5055662;28;20248;-59
2023/05/25 01:38:37;;;;;;;29.02;16.52;;;8.20;99.90;;;;;;5055007;28;20202;-59
2023/05/25 01:41:04;;;;;;;27.50;13.57;;;8.20;99.90;;;;;;5055344;28;20252;-59
2023/05/25 01:43:31;;;;;;;27.30;15.40;;;8.20;99.90;;;;;;5055601;28;20201;-59
2023/05/25 01:46:04;;;;;;;26.17;14.45;;;8.20;99.90;;;;;;5055367;28;20726;-59
2023/05/25 01:48:40;;;;;;;26.52;15.82;;;8.10;99.90;;;;;;5055489;28;20277;-59
2023/05/25 01:51:16;;;;;;;24.88;14.02;;;8.10;99.90;;;;;;5055589;28;20636;-60
2023/05/25 01:53:48;;;;;;;22.38;14.10;;;8.10;99.90;;;;;;5055408;28;20190;-60
2023/05/25 01:56:17;;;;;;;21.90;14.45;;;8.00;99.90;;;;;;5055353;28;20182;-59
2023/05/25 01:58:46;;;;;;;30.70;13.88;;;8.00;99.90;;;;;;5055420;28;20206;-59
2023/05/25 02:01:15;;;;;;;24.83;13.60;;;7.90;99.90;;;;;;5055198;28;20198;-59
2023/05/25 02:03:43;;;;;;;29.45;15.48;;;7.80;99.90;;;;;;5055290;28;20201;-59
2023/05/25 02:06:11;;;;;;;31.58;15.18;;;7.80;99.90;;;;;;5055260;28;20236;-59
2023/05/25 02:08:39;;;;;;;27.08;14.15;;;7.80;99.90;;;;;;5056537;28;20245;-59
2023/05/25 02:11:05;;;;;;;26.00;15.43;;;7.80;99.90;;;;;;5055132;28;20205;-59
2023/05/25 02:13:32;;;;;;;30.80;14.85;;;7.80;99.90;;;;;;5056248;28;20206;-58
2023/05/25 02:15:59;;;;;;;21.27;14.40;;;7.90;99.90;;;;;;5057506;28;20244;-59
2023/05/25 02:18:26;;;;;;;29.10;15.52;;;7.90;99.90;;;;;;5056802;28;20695;-59
2023/05/25 02:20:53;;;;;;;30.50;15.27;;;8.00;99.90;;;;;;5056844;28;20212;-59
2023/05/25 02:23:20;;;;;;;27.40;14.57;;;8.00;99.90;;;;;;5057195;28;20213;-57
2023/05/25 02:25:50;;;;;;;24.13;14.73;;;7.90;99.90;;;;;;5055266;28;20225;-60
2023/05/25 02:28:17;;;;;;;23.30;15.48;;;7.90;99.90;;;;;;5054882;28;20259;-59
2023/05/25 02:30:44;;;;;;;25.63;14.82;;;7.90;99.90;;;;;;5054704;28;20675;-59
2023/05/25 02:33:12;;;;;;;26.77;15.25;;;8.00;99.90;;;;;;5055175;28;20202;-59
2023/05/25 02:35:40;;;;;;;25.02;14.80;;;8.00;99.90;;;;;;5054692;28;20228;-59
2023/05/25 02:38:07;;;;;;;28.52;13.45;;;8.00;99.90;;;;;;5054707;28;20243;-59
2023/05/25 02:40:34;;;;;;;24.77;15.25;;;8.20;99.90;;;;;;5054562;28;20198;-59
2023/05/25 02:43:02;;;;;;;25.20;14.65;;;8.20;99.90;;;;;;5054402;28;20202;-60
2023/05/25 02:45:29;;;;;;;28.50;14.80;;;8.30;99.90;;;;;;5054788;28;20597;-59
2023/05/25 02:47:55;;;;;;;25.45;14.90;;;8.40;99.90;;;;;;5059472;28;20671;-59
2023/05/25 02:50:22;;;;;;;26.90;14.98;;;8.40;99.90;;;;;;5053644;28;20216;-59
2023/05/25 02:52:49;;;;;;;23.80;14.65;;;8.50;99.90;;;;;;5054863;28;20212;-59
2023/05/25 02:55:17;;;;;;;24.58;14.57;;;8.50;99.90;;;;;;5054718;28;20703;-59
2023/05/25 02:57:44;;;;;;;24.08;12.82;;;8.50;99.90;;;;;;5054553;28;20214;-59
2023/05/25 03:00:13;;;;;;;22.60;13.45;;;8.60;99.90;;;;;;5054172;28;20204;-59
2023/05/25 03:02:40;;;;;;;25.30;13.35;;;8.60;99.90;;;;;;5054359;28;20217;-59
2023/05/25 03:05:07;;;;;;;20.85;13.05;;;8.60;99.90;;;;;;5053753;28;20233;-59
2023/05/25 03:07:34;;;;;;;22.65;12.93;;;8.60;99.90;;;;;;5054215;28;20197;-60
2023/05/25 03:10:01;;;;;;;27.65;12.95;;;8.70;99.90;;;;;;5053933;28;20197;-59
2023/05/25 03:12:28;;;;;;;22.73;12.35;;;8.70;99.90;;;;;;5054185;28;20555;-59
2023/05/25 03:14:55;;;;;;;23.25;13.10;;;8.70;99.90;;;;;;5054582;28;20225;-59
2023/05/25 03:17:23;;;;;;;20.73;14.68;;;8.80;99.90;;;;;;5054117;28;20258;-59
2023/05/25 03:19:50;;;;;;;21.65;13.27;;;8.80;99.90;;;;;;5053870;28;20233;-59
2023/05/25 03:22:16;;;;;;;20.58;13.90;;;8.80;99.90;;;;;;5053485;28;20205;-59
2023/05/25 03:24:43;;;;;;;18.30;12.45;;;8.80;99.90;;;;;;5053598;28;20218;-58
2023/05/25 03:27:10;;;;;;;22.90;12.93;;;8.90;99.90;;;;;;5053641;28;20204;-58
2023/05/25 03:29:37;;;;;;;22.90;12.38;;;8.80;99.90;;;;;;5053516;28;20616;-59
2023/05/25 03:32:04;;;;;;;23.42;15.18;;;8.80;99.90;;;;;;5053864;28;20202;-59
2023/05/25 03:34:34;;;;;;;21.30;14.15;;;8.80;99.90;;;;;;5053447;28;20225;-59
2023/05/25 03:37:00;;;;;;;23.70;13.50;;;8.80;99.90;;;;;;5053592;28;20232;-59
2023/05/25 03:39:27;;;;;;;30.65;15.20;;;8.80;99.90;;;;;;5053607;28;20641;-59
2023/05/25 03:41:54;;;;;;;20.27;13.57;;;8.80;99.90;;;;;;5053621;28;20204;-59
2023/05/25 03:44:21;;;;;;;24.60;14.30;;;8.80;99.90;;;;;;5053348;28;20218;-59
2023/05/25 03:46:48;;;;;;;24.52;14.98;;;8.80;99.90;;;;;;5053424;28;20604;-59
2023/05/25 03:49:15;;;;;;;25.13;15.45;;;8.80;99.90;;;;;;5053257;28;20694;-59
2023/05/25 03:51:43;;;;;;;25.60;15.00;;;8.80;99.90;;;;;;5053758;28;20208;-59
2023/05/25 03:54:10;;;;;;;19.25;13.45;;;8.90;99.90;;;;;;5053164;28;20707;-59
2023/05/25 03:56:37;;;;;;;25.63;14.95;;;8.90;99.90;;;;;;5053330;28;20229;-59
2023/05/25 03:59:03;;;;;;;28.63;15.95;;;8.90;99.90;;;;;;5053439;28;20217;-59
2023/05/25 04:01:30;;;;;;;27.38;14.32;;;8.90;99.90;;;;;;5052292;28;20761;-60
2023/05/25 04:03:57;;;;;;;24.50;15.63;;;8.90;99.90;;;;;;5053340;28;20210;-59
2023/05/25 04:06:25;;;;;;;26.83;15.63;;;8.90;99.90;;;;;;5052912;28;20216;-59
2023/05/25 04:11:45;;;;;;;30.27;14.43;;;9.00;99.90;;;;;;5091860;27;20690;-59
2023/05/25 04:14:12;;;;;;;22.75;14.98;;;9.10;99.90;;;;;;5091392;28;20224;-58
2023/05/25 04:16:40;;;;;;;25.85;14.38;;;9.10;99.90;;;;;;5091714;28;20217;-59
2023/05/25 04:19:06;;;;;;;26.95;15.18;;;9.20;99.90;;;;;;5091258;28;20204;-59
2023/05/25 04:21:33;;;;;;;29.23;17.80;;;9.20;99.90;;;;;;5091637;28;20206;-59
2023/05/25 04:24:00;;;;;;;24.20;15.10;;;9.20;99.90;;;;;;5091355;28;20235;-59
2023/05/25 04:26:27;;;;;;;25.58;14.32;;;9.30;99.90;;;;;;5092109;28;20204;-57
2023/05/25 04:28:57;;;;;;;31.70;15.75;;;9.30;99.90;;;;;;5091603;28;20196;-59
2023/05/25 04:31:25;;;;;;;27.77;15.27;;;9.40;99.90;;;;;;5092035;28;20639;-59
2023/05/25 04:33:54;;;;;;;24.58;15.88;;;9.40;99.90;;;;;;5091543;28;20673;-60
2023/05/25 04:36:22;;;;;;;28.00;15.55;;;9.40;99.90;;;;;;5090688;28;20213;-60
2023/05/25 04:38:50;;;;;;;26.00;15.77;;;9.40;99.90;;;;;;5091217;28;20253;-59
2023/05/25 04:41:17;;;;;;;24.63;15.85;;;9.50;99.90;;;;;;5090252;28;20196;-60
2023/05/25 04:43:45;;;;;;;25.90;16.70;;;9.50;99.90;;;;;;5090718;28;20212;-60
2023/05/25 04:46:15;;;;;;;26.33;17.10;;;9.50;99.90;;;;;;5091305;28;20262;-60
2023/05/25 04:48:42;;;;;;;20.38;14.38;;;9.60;99.90;;;;;;5091997;28;20192;-59
2023/05/25 04:51:10;;;;;;;30.73;15.52;;;9.70;99.90;;;;;;5091592;28;20224;-59
2023/05/25 04:53:37;;;;;;;23.42;16.00;;;9.70;99.90;;;;;;5090742;28;20201;-58
2023/05/25 04:56:04;;;;;;;27.88;15.25;;;9.80;99.90;;;;;;5090367;28;20223;-59
2023/05/25 04:58:32;;;;;;;25.42;16.20;;;9.80;99.90;;;;;;5091020;28;20246;-59
2023/05/25 05:00:59;;;;;;;25.20;15.27;;;9.90;99.90;;;;;;5089787;28;20192;-60
2023/05/25 05:03:27;;;;;;;24.53;14.70;;;10.00;99.90;;;;;;5095544;28;20442;-59
2023/05/25 05:05:53;;;;;;;21.30;13.50;;;10.10;99.90;;;;;;5100991;22;20487;-58
2023/05/25 05:08:20;;;;;;;22.87;14.20;;;10.10;99.90;;;;;;5070728;28;20444;-59
2023/05/25 05:10:47;;;;;;;20.77;14.83;;;10.10;99.90;;;;;;5069934;28;20502;-59
2023/05/25 05:13:14;;;;;;;22.23;14.40;;;10.20;99.90;;;;;;5069710;28;20443;-60
2023/05/25 05:15:40;;;;;;;23.10;14.07;;;10.20;99.90;;;;;;5069509;28;20463;-60
2023/05/25 05:18:08;;;;;;;20.60;14.05;;;10.20;99.90;;;;;;5068842;28;20439;-60
2023/05/25 05:20:36;;;;;;;25.07;17.03;;;10.20;99.90;;;;;;5068607;28;20203;-59
2023/05/25 05:23:03;;;;;;;20.50;15.73;;;10.10;99.90;;;;;;5055797;28;20539;-59
2023/05/25 05:25:29;;;;;;;28.50;20.13;;;10.10;99.90;;;;;;5055660;28;20274;-61
2023/05/25 05:27:56;;;;;;;28.03;16.53;;;10.10;99.90;;;;;;5055980;28;20444;-59
2023/05/25 05:30:23;;;;;;;24.75;16.25;;;10.10;99.90;;;;;;5055661;28;20567;-60
2023/05/25 05:32:50;;;;;;;29.33;17.40;;;10.10;99.90;;;;;;5055603;28;20202;-61
2023/05/25 05:35:17;;;;;;;24.10;18.83;;;10.10;99.90;;;;;;5055362;28;20256;-60
2023/05/25 05:37:46;;;;;;;26.07;17.73;;;10.10;99.90;;;;;;5055515;28;20513;-59
2023/05/25 05:40:13;;;;;;;24.43;17.50;;;10.10;99.90;;;;;;5055679;28;20445;-60
2023/05/25 05:42:41;;;;;;;27.05;20.38;;;10.10;99.90;;;;;;5055871;28;20958;-60
2023/05/25 05:45:08;;;;;;;32.88;21.73;;;10.00;99.90;;;;;;5055872;28;20234;-60
2023/05/25 05:47:35;;;;;;;30.00;22.20;;;10.00;99.90;;;;;;5055657;28;20209;-60
2023/05/25 05:50:02;;;;;;;26.13;20.02;;;10.10;99.90;;;;;;5055487;28;20555;-60
2023/05/25 05:52:29;;;;;;;20.75;16.48;;;10.10;99.90;;;;;;5055113;28;20689;-59
2023/05/25 05:54:57;;;;;;;23.00;18.00;;;10.10;99.90;;;;;;5055193;28;20707;-60
2023/05/25 05:57:24;;;;;;;24.40;19.20;;;10.00;99.90;;;;;;5055166;28;20448;-59
2023/05/25 05:59:51;;;;;;;24.60;16.13;;;10.00;99.90;;;;;;5055178;28;20208;-60
2023/05/25 06:02:17;;;;;;;26.80;16.80;;;10.00;99.90;;;;;;5054832;28;20581;-60
2023/05/25 06:04:44;;;;;;;23.57;17.20;;;10.00;99.90;;;;;;5054981;28;20476;-59
2023/05/25 06:07:11;;;;;;;29.07;19.30;;;10.00;99.90;;;;;;5055558;28;20464;-59
2023/05/25 06:09:38;;;;;;;28.33;20.67;;;10.00;99.90;;;;;;5055233;28;20531;-60
2023/05/25 06:12:07;;;;;;;22.50;16.97;;;10.10;99.90;;;;;;5055573;28;20480;-60
2023/05/25 06:14:33;;;;;;;23.92;15.10;;;10.10;99.90;;;;;;5055888;28;20475;-60
2023/05/25 06:17:01;;;;;;;21.35;15.80;;;10.10;99.90;;;;;;5060392;28;20288;-59
2023/05/25 06:19:27;;;;;;;18.63;13.93;;;10.20;99.90;;;;;;5056896;28;20628;-59
2023/05/25 06:21:54;;;;;;;25.33;14.30;;;10.20;99.90;;;;;;5054971;28;20440;-59
2023/05/25 06:24:21;;;;;;;24.77;14.52;;;10.20;99.90;;;;;;5054779;28;20202;-60
2023/05/25 06:26:48;;;;;;;24.17;15.50;;;10.10;99.90;;;;;;5055039;28;20205;-59
2023/05/25 06:29:16;;;;;;;20.03;15.37;;;10.10;99.90;;;;;;5054583;28;20202;-59
2023/05/25 06:31:43;;;;;;;23.13;13.30;;;10.20;99.90;;;;;;5054451;28;20480;-60
2023/05/25 06:34:10;;;;;;;23.10;14.40;;;10.20;99.90;;;;;;5053819;28;20819;-60
2023/05/25 06:36:36;;;;;;;26.52;14.85;;;10.20;99.90;;;;;;5054659;28;20216;-59
2023/05/25 06:39:03;;;;;;;25.43;15.10;;;10.30;99.90;;;;;;5054810;28;20201;-60
2023/05/25 06:41:30;;;;;;;18.40;14.73;;;10.30;99.90;;;;;;5054180;28;20467;-59
2023/05/25 06:43:57;;;;;;;19.77;13.70;;;10.30;99.90;;;;;;5054233;28;20448;-60
2023/05/25 06:46:25;;;;;;;20.88;14.13;;;10.40;99.90;;;;;;5053746;28;20982;-59
2023/05/25 06:48:52;;;;;;;21.30;14.03;;;10.50;99.90;;;;;;5054063;28;20286;-59
2023/05/25 06:51:19;;;;;;;19.90;13.50;;;10.60;99.90;;;;;;5053991;28;20475;-59
2023/05/25 06:53:45;;;;;;;23.33;16.50;;;10.80;99.90;;;;;;5054838;28;20447;-60
2023/05/25 06:56:12;;;;;;;17.97;13.07;;;10.90;99.90;;;;;;5054157;28;20475;-60
2023/05/25 06:58:39;;;;;;;22.17;14.07;;;11.00;99.90;;;;;;5053842;28;20456;-59
2023/05/25 07:01:06;;;;;;;17.10;13.90;;;11.20;99.90;;;;;;5053825;28;20763;-60
2023/05/25 07:03:35;;;;;;;16.93;12.93;;;11.30;99.90;;;;;;5054016;28;20972;-59
2023/05/25 07:06:02;;;;;;;19.80;12.90;;;11.50;99.90;;;;;;5053770;28;20476;-59
2023/05/25 07:08:28;;;;;;;18.17;12.00;;;11.70;99.90;;;;;;5054534;28;20447;-59
2023/05/25 07:10:55;;;;;;;16.27;12.97;;;11.80;99.90;;;;;;5053721;28;20490;-59
2023/05/25 07:13:22;;;;;;;18.43;13.30;;;11.90;99.90;;;;;;5056466;28;20456;-59
2023/05/25 07:15:49;;;;;;;20.90;13.00;;;12.00;99.90;;;;;;5056909;28;20475;-59
2023/05/25 07:18:16;;;;;;;21.03;13.70;;;12.20;99.90;;;;;;5057114;28;20447;-61
2023/05/25 07:20:44;;;;;;;20.70;14.27;;;12.40;99.90;;;;;;5057335;28;20534;-61
2023/05/25 07:23:11;;;;;;;16.40;12.30;;;12.50;99.90;;;;;;5055982;28;20454;-61
2023/05/25 07:25:40;;;;;;;18.63;10.97;;;12.60;99.90;;;;;;5057239;28;20523;-61
2023/05/25 07:28:07;;;;;;;21.80;11.60;;;12.80;99.90;;;;;;5056745;28;20459;-60
2023/05/25 07:30:34;;;;;;;16.80;11.57;;;12.90;99.90;;;;;;5056241;28;20448;-61
2023/05/25 07:33:01;;;;;;;18.17;10.03;;;13.00;99.90;;;;;;5057761;28;20551;-60
2023/05/25 07:35:28;;;;;;;17.53;10.30;;;13.10;99.90;;;;;;5056037;28;20468;-60
2023/05/25 07:38:00;;;;;;;14.73;10.30;;;13.10;99.90;;;;;;5054532;28;20448;-61
2023/05/25 07:40:28;;;;;;;16.07;10.30;;;13.10;99.90;;;;;;5053996;28;20583;-60
2023/05/25 07:42:55;;;;;;;14.03;10.73;;;13.10;99.90;;;;;;5054121;28;20459;-60
2023/05/25 07:45:22;;;;;;;13.43;10.03;;;13.10;99.90;;;;;;5054323;28;20460;-60
2023/05/25 07:47:48;;;;;;;12.33;10.00;;;13.20;99.90;;;;;;5054610;28;20440;-61
2023/05/25 07:50:15;;;;;;;13.73;10.27;;;13.30;99.90;;;;;;5055317;28;20455;-60
2023/05/25 07:52:42;;;;;;;13.23;9.50;;;13.40;99.90;;;;;;5055740;28;20526;-62
2023/05/25 07:55:11;;;;;;;14.57;9.63;;;13.60;99.90;;;;;;5056061;28;20467;-60
2023/05/25 07:57:38;;;;;;;13.87;7.80;;;13.70;99.90;;;;;;5054631;28;20946;-62
2023/05/25 08:00:06;;;;;;;14.37;8.83;;;13.80;99.90;;;;;;5054692;28;20455;-61
2023/05/25 08:02:33;;;;;;;11.80;8.83;;;13.90;99.90;;;;;;5054515;28;20502;-61
2023/05/25 08:05:04;;;;;;;13.60;8.60;;;14.00;99.90;;;;;;5054635;28;20863;-59
2023/05/25 08:07:31;;;;;;;13.33;7.37;;;14.00;99.90;;;;;;5053634;28;20464;-60
2023/05/25 08:09:58;;;;;;;10.87;8.60;;;14.00;99.90;;;;;;5053353;28;20543;-58
2023/05/25 08:12:28;;;;;;;12.63;8.10;;;13.80;99.90;;;;;;5053739;28;20491;-61
2023/05/25 08:14:55;;;;;;;14.50;8.10;;;13.80;99.90;;;;;;5053932;28;20471;-60
2023/05/25 08:17:22;;;;;;;14.20;8.60;;;13.90;99.90;;;;;;5053064;28;20450;-61
2023/05/25 08:19:48;;;;;;;12.27;8.00;;;13.90;99.90;;;;;;5053265;28;20448;-61
2023/05/25 08:22:15;;;;;;;13.53;10.03;;;13.80;99.90;;;;;;5053052;28;20467;-61
2023/05/25 08:24:42;;;;;;;13.53;9.33;;;13.80;99.90;;;;;;5053838;28;20467;-60
2023/05/25 08:27:09;;;;;;;15.47;10.30;;;13.80;99.90;;;;;;5055180;28;20443;-61
2023/05/25 08:29:37;;;;;;;15.37;11.90;;;13.90;99.90;;;;;;5055753;28;20454;-61
2023/05/25 08:32:04;;;;;;;16.83;12.80;;;13.90;99.90;;;;;;5055277;28;20502;-61
2023/05/25 08:34:31;;;;;;;13.50;11.70;;;13.90;99.90;;;;;;5054456;28;20962;-61
2023/05/25 08:36:58;;;;;;;16.17;12.27;;;13.90;99.90;;;;;;5054335;28;20444;-61
2023/05/25 08:39:25;;;;;;;13.70;11.17;;;13.90;99.90;;;;;;5054106;28;20448;-60
2023/05/25 08:41:52;;;;;;;12.40;10.87;;;13.90;99.90;;;;;;5053779;28;20471;-61
2023/05/25 08:44:20;;;;;;;14.63;11.20;;;13.90;99.90;;;;;;5053530;28;20532;-59
2023/05/25 08:46:49;;;;;;;12.23;9.33;;;13.80;99.90;;;;;;5053298;28;20440;-61
2023/05/25 08:49:16;;;;;;;13.67;9.30;;;13.80;99.90;;;;;;5053879;28;20447;-60
2023/05/25 08:51:48;;;;;;;14.00;10.07;;;13.70;99.90;;;;;;5053772;28;20487;-60
2023/05/25 08:54:18;;;;;;;12.17;10.87;;;13.80;99.90;;;;;;5053491;28;20531;-61
2023/05/25 08:56:49;;;;;;;17.97;11.47;;;13.90;99.90;;;;;;5054954;28;20452;-61
2023/05/25 08:59:28;;;;;;;18.73;10.70;;;14.00;99.90;;;;;;5057473;28;20447;-60
2023/05/25 09:02:07;;;;;;;19.03;9.87;;;14.00;99.90;;;;;;5057822;28;20424;-61
2023/05/25 09:04:35;;;;;;;15.83;10.20;;;14.00;99.90;;;;;;5056337;28;20498;-58
2023/05/25 09:07:02;;;;;;;12.70;9.40;;;13.90;99.90;;;;;;5057289;28;20448;-59
2023/05/25 09:09:29;;;;;;;12.33;7.90;;;13.80;99.90;;;;;;5056568;28;20448;-60
2023/05/25 09:11:57;;;;;;;13.70;8.63;;;13.80;99.90;;;;;;5056164;28;20480;-60
2023/05/25 09:14:24;;;;;;;17.20;9.90;;;13.80;99.90;;;;;;5056178;28;20818;-61
2023/05/25 09:16:51;;;;;;;14.43;8.40;;;13.90;99.90;;;;;;5056318;28;20448;-60
2023/05/25 09:19:20;;;;;;;15.50;7.87;;;14.00;99.90;;;;;;5055877;28;20541;-60
2023/05/25 09:21:46;;;;;;;15.40;8.60;;;14.10;99.90;;;;;;5056290;28;20527;-61
2023/05/25 09:24:14;;;;;;;11.00;9.00;;;14.00;99.90;;;;;;5057988;28;20454;-61
2023/05/25 09:26:43;;;;;;;12.67;8.70;;;13.90;99.90;;;;;;5057084;28;20809;-61
2023/05/25 09:29:12;;;;;;;14.90;9.77;;;13.70;99.90;;;;;;5062000;28;20479;-61
2023/05/25 09:31:39;;;;;;;16.17;9.63;;;13.70;99.90;;;;;;5056954;28;20492;-61
2023/05/25 09:34:11;;;;;;;11.60;8.13;;;13.80;99.90;;;;;;5056904;28;20544;-61
2023/05/25 09:36:40;;;;;;;11.10;7.27;;;13.90;99.90;;;;;;5056198;28;20433;-61
2023/05/25 09:39:09;;;;;;;7.80;6.60;;;14.10;99.90;;;;;;5056300;28;20945;-61
2023/05/25 09:41:36;;;;;;;10.70;7.50;;;14.20;99.90;;;;;;5056419;28;20436;-61
2023/05/25 09:44:04;;;;;;;11.63;7.10;;;14.30;99.90;;;;;;5056585;28;20523;-61
2023/05/25 09:46:35;;;;;;;9.10;6.87;;;14.40;99.90;;;;;;5065280;28;20440;-61
2023/05/25 09:49:03;;;;;;;16.20;7.67;;;14.50;99.90;;;;;;5064651;28;20439;-60
2023/05/25 09:51:32;;;;;;;10.03;7.17;;;14.50;99.90;;;;;;5063725;28;20476;-61
2023/05/25 09:54:00;;;;;;;11.00;7.13;;;14.60;99.90;;;;;;5063990;28;20440;-62
2023/05/25 09:56:27;;;;;;;9.00;7.17;;;14.70;99.70;;;;;;5061182;28;20982;-60
2023/05/25 09:58:56;;;;;;;7.10;5.97;;;14.70;99.40;;;;;;5062511;28;20886;-61
2023/05/25 10:01:23;;;;;;;13.37;6.77;;;14.70;99.20;;;;;;5065784;28;20441;-61
2023/05/25 10:03:50;;;;;;;10.87;6.20;;;14.80;98.70;;;;;;5067096;28;20444;-60
2023/05/25 10:06:17;;;;;;;10.70;6.50;;;14.70;98.20;;;;;;5065822;28;20467;-60
2023/05/25 10:08:45;;;;;;;12.87;7.90;;;14.70;98.30;;;;;;5066799;28;20448;-60
2023/05/25 10:11:14;;;;;;;7.77;6.37;;;14.70;97.90;;;;;;5064762;28;20990;-62
2023/05/25 10:13:44;;;;;;;8.50;6.30;;;14.60;97.90;;;;;;5056095;28;20450;-61
2023/05/25 10:16:16;;;;;;;6.70;6.00;;;14.60;97.70;;;;;;5055990;28;20468;-60
2023/05/25 10:18:48;;;;;;;9.40;6.67;;;14.70;97.50;;;;;;5055405;28;20438;-61
2023/05/25 10:21:18;;;;;;;13.93;6.37;;;14.70;97.30;;;;;;5055204;28;20483;-60
2023/05/25 10:23:47;;;;;;;9.97;6.17;;;14.80;97.30;;;;;;5055483;28;20444;-60
2023/05/25 10:26:20;;;;;;;11.10;6.47;;;14.90;97.40;;;;;;5055991;28;20468;-61
2023/05/25 10:28:50;;;;;;;9.73;6.90;;;14.90;96.90;;;;;;5056094;28;20440;-62
2023/05/25 10:31:18;;;;;;;10.80;6.33;;;15.00;96.60;;;;;;5055154;28;20455;-60
2023/05/25 10:33:46;;;;;;;10.00;6.43;;;15.10;95.90;;;;;;5055427;28;20444;-59
2023/05/25 10:36:13;;;;;;;7.87;6.53;;;15.30;95.10;;;;;;5055938;28;20495;-60
2023/05/25 10:38:43;;;;;;;12.47;7.20;;;15.30;94.50;;;;;;5055055;28;20448;-60
2023/05/25 10:41:11;;;;;;;9.80;6.47;;;15.40;94.00;;;;;;5055153;28;20547;-61
2023/05/25 10:43:40;;;;;;;9.50;7.33;;;15.30;93.50;;;;;;5055473;28;20440;-61
2023/05/25 10:46:07;;;;;;;12.93;6.70;;;15.20;93.80;;;;;;5055012;28;20472;-61
2023/05/25 10:48:38;;;;;;;8.93;6.60;;;15.20;94.10;;;;;;5055038;28;20476;-61
2023/05/25 10:51:05;;;;;;;8.03;5.63;;;15.20;94.20;;;;;;5055023;28;20486;-61
2023/05/25 10:53:32;;;;;;;7.73;6.03;;;15.20;93.80;;;;;;5054893;28;20480;-61
2023/05/25 10:56:03;;;;;;;9.80;6.30;;;15.20;93.40;;;;;;5055051;28;20468;-62
2023/05/25 10:58:31;;;;;;;9.00;5.67;;;15.20;93.20;;;;;;5054980;28;20448;-61
2023/05/25 11:01:01;;;;;;;12.50;7.17;;;15.20;93.10;;;;;;5054325;28;20804;-60
2023/05/25 11:03:54;;;;;;;7.90;5.40;;;15.20;92.30;;;;;;5054889;28;20497;-60
2023/05/25 11:06:22;;;;;;;8.20;6.30;;;15.10;92.40;;;;;;5080515;22;20491;-60
2023/05/25 11:08:50;;;;;;;7.70;5.53;;;15.00;93.00;;;;;;5078212;28;20439;-59
2023/05/25 11:11:17;;;;;;;7.43;5.00;;;15.10;93.20;;;;;;5077990;28;20964;-60
2023/05/25 11:13:45;;;;;;;8.80;6.57;;;15.10;92.70;;;;;;5077469;28;20479;-59
2023/05/25 11:16:34;;;;;;;7.07;5.50;;;15.10;92.70;;;;;;5075270;28;20474;-59
2023/05/25 11:19:02;;;;;;;7.10;5.40;;;15.20;92.90;;;;;;5076159;28;20440;-60
2023/05/25 11:21:43;;;;;;;10.70;4.53;;;15.30;92.20;;;;;;5074551;28;21013;-61
2023/05/25 11:24:17;;;;;;;6.73;4.30;;;15.30;91.60;;;;;;5074131;28;20487;-59
2023/05/25 11:26:59;;;;;;;7.77;4.70;;;15.30;91.40;;;;;;5073987;28;20463;-60
2023/05/25 11:29:31;;;;;;;5.73;5.13;;;15.30;91.60;;;;;;5075004;28;20518;-60
2023/05/25 11:31:59;;;;;;;5.63;4.47;;;15.40;91.60;;;;;;5074581;28;20471;-60
2023/05/25 11:34:27;;;;;;;8.17;4.60;;;15.60;90.90;;;;;;5074389;28;20538;-59
2023/05/25 11:36:57;;;;;;;7.10;5.40;;;15.80;90.60;;;;;;5074740;28;20443;-60
2023/05/25 11:39:24;;;;;;;8.80;4.43;;;16.00;89.90;;;;;;5074936;28;20937;-60
2023/05/25 11:41:55;;;;;;;7.07;4.63;;;16.20;87.10;;;;;;5074768;28;20451;-60
2023/05/25 11:44:28;;;;;;;8.27;4.30;;;16.40;85.20;;;;;;5075844;28;20481;-60
2023/05/25 11:46:56;;;;;;;7.00;4.60;;;16.40;83.50;;;;;;5077717;28;20450;-60
2023/05/25 11:49:24;;;;;;;5.00;4.33;;;16.30;82.90;;;;;;5077487;28;20447;-59
2023/05/25 11:51:51;;;;;;;6.50;4.07;;;16.30;83.40;;;;;;5077088;28;20447;-60
2023/05/25 11:54:22;;;;;;;7.40;3.93;;;16.30;83.80;;;;;;5079104;28;20807;-60
2023/05/25 11:56:49;;;;;;;6.67;4.53;;;16.40;82.30;;;;;;5079058;28;20467;-60
2023/05/25 11:59:16;;;;;;;7.20;4.70;;;16.40;81.90;;;;;;5078558;28;20447;-60
2023/05/25 12:01:43;;;;;;;7.60;4.40;;;16.40;81.90;;;;;;5079357;28;20809;-60
2023/05/25 12:04:11;;;;;;;5.60;4.30;;;16.50;81.50;;;;;;5079949;28;20446;-58
2023/05/25 12:06:39;;;;;;;6.30;3.90;;;16.70;80.60;;;;;;5077615;28;20494;-59
2023/05/25 12:09:12;;;;;;;7.23;4.30;;;16.80;79.40;;;;;;5077469;28;20450;-60
2023/05/25 12:11:39;;;;;;;7.20;4.33;;;17.10;77.80;;;;;;5075315;28;20814;-59
2023/05/25 12:14:07;;;;;;;5.87;3.80;;;17.20;76.30;;;;;;5074996;28;20486;-59
2023/05/25 12:16:35;;;;;;;5.90;4.03;;;17.30;75.10;;;;;;5073917;28;20463;-59
2023/05/25 12:19:03;;;;;;;9.47;4.10;;;17.40;74.30;;;;;;5074330;28;20454;-59
2023/05/25 12:21:30;;;;;;;6.47;3.80;;;17.50;72.90;;;;;;5073277;28;20805;-59
2023/05/25 12:23:58;;;;;;;5.93;4.67;;;17.40;71.90;;;;;;5074432;28;20450;-60
2023/05/25 12:26:26;;;;;;;6.50;4.20;;;17.30;71.50;;;;;;5074239;28;20471;-60
2023/05/25 12:29:00;;;;;;;7.20;3.50;;;17.00;71.00;;;;;;5073842;28;20486;-60
2023/05/25 12:31:28;;;;;;;5.97;3.63;;;16.90;72.40;;;;;;5074287;28;20453;-61
2023/05/25 12:34:09;;;;;;;5.93;3.73;;;16.80;72.00;;;;;;5079146;28;20566;-60
2023/05/25 12:36:40;;;;;;;7.00;4.50;;;16.70;72.20;;;;;;5078149;28;20976;-59
2023/05/25 12:39:10;;;;;;;6.13;3.60;;;16.90;72.20;;;;;;5078447;28;20450;-60
2023/05/25 12:41:51;;;;;;;8.23;3.90;;;17.30;70.40;;;;;;5080550;28;20469;-61
2023/05/25 12:44:20;;;;;;;9.87;4.00;;;17.70;67.90;;;;;;5078330;28;20925;-61